sensor_id;sensor_type;location;lat;lon;timestamp;temperature;humidity
20315;DHT22;10315;50.958;13.080;2022-08-18T00:00:47;21.00;99.90
20315;DHT22;10315;50.958;13.080;2022-08-18T00:10:50;20.80;99.90
20315;DHT22;10315;50.958;13.080;2022-08-18T00:20:52;21.00;99.90
20315;DHT22;10315;50.958;13.080;2022-08-18T00:30:55;20.80;99.90
20315;DHT22;10315;50.958;13.080;2022-08-18T00:40:56;20.60;99.90
20315;DHT22;10315;50.958;13.080;2022-08-18T00:51:03;20.80;99.90
20315;DHT22;10315;50.958;13.080;2022-08-18T01:01:08;20.20;99.90
20315;DHT22;10315;50.958;13.080;2022-08-18T01:11:13;19.70;99.90
20315;DHT22;10315;50.958;13.080;2022-08-18T01:21:18;19.60;99.90
20315;DHT22;10315;50.958;13.080;2022-08-18T01:31:43;19.70;99.90
20315;DHT22;10315;50.958;13.080;2022-08-18T01:41:49;20.00;99.90
20315;DHT22;10315;50.958;13.080;2022-08-18T01:51:52;19.60;99.90
20315;DHT22;10315;50.958;13.080;2022-08-18T02:01:54;19.70;99.90
20315;DHT22;10315;50.958;13.080;2022-08-18T02:11:59;20.10;99.90
20315;DHT22;10315;50.958;13.080;2022-08-18T02:22:01;20.20;99.90
20315;DHT22;10315;50.958;13.080;2022-08-18T02:32:05;20.20;99.90
20315;DHT22;10315;50.958;13.080;2022-08-18T02:42:08;20.00;99.90
20315;DHT22;10315;50.958;13.080;2022-08-18T02:52:11;19.70;99.90
20315;DHT22;10315;50.958;13.080;2022-08-18T03:02:12;19.50;99.90
20315;DHT22;10315;50.958;13.080;2022-08-18T03:12:15;20.20;99.90
20315;DHT22;10315;50.958;13.080;2022-08-18T03:22:17;20.20;99.90
20315;DHT22;10315;50.958;13.080;2022-08-18T03:32:20;20.00;99.90
20315;DHT22;10315;50.958;13.080;2022-08-18T03:42:21;20.10;99.90
20315;DHT22;10315;50.958;13.080;2022-08-18T03:52:24;19.70;99.90
20315;DHT22;10315;50.958;13.080;2022-08-18T04:02:26;19.40;99.90
20315;DHT22;10315;50.958;13.080;2022-08-18T04:12:29;19.30;99.90
20315;DHT22;10315;50.958;13.080;2022-08-18T04:22:31;19.60;99.90
20315;DHT22;10315;50.958;13.080;2022-08-18T04:32:35;20.20;99.90
20315;DHT22;10315;50.958;13.080;2022-08-18T04:42:37;20.60;99.90
20315;DHT22;10315;50.958;13.080;2022-08-18T04:52:41;20.60;99.90
20315;DHT22;10315;50.958;13.080;2022-08-18T05:03:00;20.40;99.90
20315;DHT22;10315;50.958;13.080;2022-08-18T05:13:03;21.00;99.90
20315;DHT22;10315;50.958;13.080;2022-08-18T05:23:05;21.20;99.90
20315;DHT22;10315;50.958;13.080;2022-08-18T05:33:09;21.80;99.90
20315;DHT22;10315;50.958;13.080;2022-08-18T05:43:12;22.90;99.90
20315;DHT22;10315;50.958;13.080;2022-08-18T05:53:16;23.60;99.90
20315;DHT22;10315;50.958;13.080;2022-08-18T06:03:21;23.50;99.90
20315;DHT22;10315;50.958;13.080;2022-08-18T06:13:26;23.10;99.90
20315;DHT22;10315;50.958;13.080;2022-08-18T06:23:34;23.30;99.90
20315;DHT22;10315;50.958;13.080;2022-08-18T06:33:44;23.70;99.90
20315;DHT22;10315;50.958;13.080;2022-08-18T06:43:55;24.90;99.90
20315;DHT22;10315;50.958;13.080;2022-08-18T06:54:02;26.10;99.90
20315;DHT22;10315;50.958;13.080;2022-08-18T07:04:04;25.70;99.90
20315;DHT22;10315;50.958;13.080;2022-08-18T07:14:19;24.80;99.90
20315;DHT22;10315;50.958;13.080;2022-08-18T07:24:29;24.50;99.90
20315;DHT22;10315;50.958;13.080;2022-08-18T07:34:36;24.20;99.90
20315;DHT22;10315;50.958;13.080;2022-08-18T07:44:44;24.70;99.90
20315;DHT22;10315;50.958;13.080;2022-08-18T07:54:57;28.70;99.90
20315;DHT22;10315;50.958;13.080;2022-08-18T08:05:06;29.20;99.90
20315;DHT22;10315;50.958;13.080;2022-08-18T08:15:30;32.50;93.60
20315;DHT22;10315;50.958;13.080;2022-08-18T08:25:44;28.50;97.70
20315;DHT22;10315;50.958;13.080;2022-08-18T08:35:51;31.20;93.60
20315;DHT22;10315;50.958;13.080;2022-08-18T08:46:03;29.10;96.70
20315;DHT22;10315;50.958;13.080;2022-08-18T08:56:13;27.60;98.70
20315;DHT22;10315;50.958;13.080;2022-08-18T09:06:23;26.80;99.90
20315;DHT22;10315;50.958;13.080;2022-08-18T09:16:40;26.50;99.90
20315;DHT22;10315;50.958;13.080;2022-08-18T09:26:48;26.70;99.90
20315;DHT22;10315;50.958;13.080;2022-08-18T09:37:02;26.30;99.90
20315;DHT22;10315;50.958;13.080;2022-08-18T09:47:09;26.30;99.90
20315;DHT22;10315;50.958;13.080;2022-08-18T09:57:20;25.90;99.90
20315;DHT22;10315;50.958;13.080;2022-08-18T10:07:31;25.60;99.90
20315;DHT22;10315;50.958;13.080;2022-08-18T10:18:00;26.80;99.90
20315;DHT22;10315;50.958;13.080;2022-08-18T10:28:03;27.30;99.90
20315;DHT22;10315;50.958;13.080;2022-08-18T10:38:13;27.10;99.90
20315;DHT22;10315;50.958;13.080;2022-08-18T10:48:20;28.30;99.90
20315;DHT22;10315;50.958;13.080;2022-08-18T11:08:59;27.10;99.90
20315;DHT22;10315;50.958;13.080;2022-08-18T11:19:06;26.10;99.90
20315;DHT22;10315;50.958;13.080;2022-08-18T11:29:29;26.00;99.90
20315;DHT22;10315;50.958;13.080;2022-08-18T11:39:31;25.80;99.90
20315;DHT22;10315;50.958;13.080;2022-08-18T11:49:35;25.00;99.90
20315;DHT22;10315;50.958;13.080;2022-08-18T11:59:37;25.40;99.90
20315;DHT22;10315;50.958;13.080;2022-08-18T12:09:42;25.80;99.90
20315;DHT22;10315;50.958;13.080;2022-08-18T12:19:44;26.50;99.90
20315;DHT22;10315;50.958;13.080;2022-08-18T12:29:47;27.40;99.90
20315;DHT22;10315;50.958;13.080;2022-08-18T12:39:49;27.30;99.90
20315;DHT22;10315;50.958;13.080;2022-08-18T12:49:52;26.80;99.90
20315;DHT22;10315;50.958;13.080;2022-08-18T12:59:54;26.40;99.90
20315;DHT22;10315;50.958;13.080;2022-08-18T13:09:56;26.90;99.90
20315;DHT22;10315;50.958;13.080;2022-08-18T13:19:58;27.70;99.90
20315;DHT22;10315;50.958;13.080;2022-08-18T13:30:02;28.10;99.90
20315;DHT22;10315;50.958;13.080;2022-08-18T13:40:05;28.10;99.90
20315;DHT22;10315;50.958;13.080;2022-08-18T13:50:15;28.10;99.90
20315;DHT22;10315;50.958;13.080;2022-08-18T14:00:19;27.50;99.90
20315;DHT22;10315;50.958;13.080;2022-08-18T14:10:23;27.60;99.90
20315;DHT22;10315;50.958;13.080;2022-08-18T14:20:25;27.60;99.90
20315;DHT22;10315;50.958;13.080;2022-08-18T14:30:47;27.90;99.90
20315;DHT22;10315;50.958;13.080;2022-08-18T14:40:49;27.40;99.90
20315;DHT22;10315;50.958;13.080;2022-08-18T14:50:54;27.30;99.90
20315;DHT22;10315;50.958;13.080;2022-08-18T15:00:59;28.20;99.90
20315;DHT22;10315;50.958;13.080;2022-08-18T15:11:03;28.40;99.90
20315;DHT22;10315;50.958;13.080;2022-08-18T15:21:06;28.00;99.90
20315;DHT22;10315;50.958;13.080;2022-08-18T15:31:27;27.50;99.90
20315;DHT22;10315;50.958;13.080;2022-08-18T15:41:32;27.40;99.90
20315;DHT22;10315;50.958;13.080;2022-08-18T15:51:38;27.60;99.90
20315;DHT22;10315;50.958;13.080;2022-08-18T16:01:41;27.20;99.90
20315;DHT22;10315;50.958;13.080;2022-08-18T16:11:44;27.20;99.90
20315;DHT22;10315;50.958;13.080;2022-08-18T16:21:46;27.10;99.90
20315;DHT22;10315;50.958;13.080;2022-08-18T16:31:51;27.10;99.90
20315;DHT22;10315;50.958;13.080;2022-08-18T16:41:52;26.80;99.90
20315;DHT22;10315;50.958;13.080;2022-08-18T16:51:56;26.50;99.90
20315;DHT22;10315;50.958;13.080;2022-08-18T17:02:01;26.40;99.90
20315;DHT22;10315;50.958;13.080;2022-08-18T17:12:30;26.10;99.90
20315;DHT22;10315;50.958;13.080;2022-08-18T17:22:32;25.90;99.90
20315;DHT22;10315;50.958;13.080;2022-08-18T17:32:40;25.50;99.90
20315;DHT22;10315;50.958;13.080;2022-08-18T17:42:43;25.10;99.90
20315;DHT22;10315;50.958;13.080;2022-08-18T17:52:52;24.90;99.90
20315;DHT22;10315;50.958;13.080;2022-08-18T18:02:55;24.50;99.90
20315;DHT22;10315;50.958;13.080;2022-08-18T18:13:10;24.40;99.90
20315;DHT22;10315;50.958;13.080;2022-08-18T18:23:16;24.00;99.90
20315;DHT22;10315;50.958;13.080;2022-08-18T18:33:19;23.70;99.90
20315;DHT22;10315;50.958;13.080;2022-08-18T18:43:23;23.30;99.90
20315;DHT22;10315;50.958;13.080;2022-08-18T18:53:36;23.20;99.90
20315;DHT22;10315;50.958;13.080;2022-08-18T19:03:45;21.50;99.90
20315;DHT22;10315;50.958;13.080;2022-08-18T19:13:52;20.30;99.90
20315;DHT22;10315;50.958;13.080;2022-08-18T19:24:00;19.90;99.90
20315;DHT22;10315;50.958;13.080;2022-08-18T19:34:06;19.40;99.90
20315;DHT22;10315;50.958;13.080;2022-08-18T19:44:23;19.40;99.90
20315;DHT22;10315;50.958;13.080;2022-08-18T19:54:39;19.30;99.90
20315;DHT22;10315;50.958;13.080;2022-08-18T20:05:01;19.10;99.90
20315;DHT22;10315;50.958;13.080;2022-08-18T20:15:11;19.00;99.90
20315;DHT22;10315;50.958;13.080;2022-08-18T20:25:37;18.80;99.90
20315;DHT22;10315;50.958;13.080;2022-08-18T20:35:48;18.80;99.90
20315;DHT22;10315;50.958;13.080;2022-08-18T20:46:00;18.70;99.90
20315;DHT22;10315;50.958;13.080;2022-08-18T20:56:20;18.80;99.90
20315;DHT22;10315;50.958;13.080;2022-08-18T21:06:27;18.80;99.90
20315;DHT22;10315;50.958;13.080;2022-08-18T21:16:35;18.70;99.90
20315;DHT22;10315;50.958;13.080;2022-08-18T21:26:37;18.60;99.90
20315;DHT22;10315;50.958;13.080;2022-08-18T21:36:50;18.50;99.90
20315;DHT22;10315;50.958;13.080;2022-08-18T21:47:02;18.40;99.90
20315;DHT22;10315;50.958;13.080;2022-08-18T21:57:22;18.30;99.90
20315;DHT22;10315;50.958;13.080;2022-08-18T22:07:23;18.20;99.90
20315;DHT22;10315;50.958;13.080;2022-08-18T22:17:29;18.20;99.90
20315;DHT22;10315;50.958;13.080;2022-08-18T22:27:31;18.20;99.90
20315;DHT22;10315;50.958;13.080;2022-08-18T22:37:43;18.20;99.90
20315;DHT22;10315;50.958;13.080;2022-08-18T22:47:45;18.20;99.90
20315;DHT22;10315;50.958;13.080;2022-08-18T22:57:48;18.20;99.90
20315;DHT22;10315;50.958;13.080;2022-08-18T23:07:50;18.10;99.90
20315;DHT22;10315;50.958;13.080;2022-08-18T23:17:53;18.20;99.90
20315;DHT22;10315;50.958;13.080;2022-08-18T23:27:57;18.10;99.90
20315;DHT22;10315;50.958;13.080;2022-08-18T23:38:00;18.20;99.90
20315;DHT22;10315;50.958;13.080;2022-08-18T23:48:03;18.20;99.90
20315;DHT22;10315;50.958;13.080;2022-08-18T23:58:06;18.20;99.90
